METAR Data
IDs: Format: Raw Decoded Include TAF

Data at: 1944 UTC 14 Dec 2018

KGPM 141850Z 31009G24KT 10SM OVC013 07/04 A3000
KGPM 141750Z 30008G15KT 7SM -RA OVC013 07/04 A3002
KGPM 141650Z 31008KT 10SM OVC013 07/03 A3003
KGPM 141550Z 31009G19KT 10SM OVC013 06/04 A3002
KGPM 141450Z 31009G19KT 10SM OVC011 06/06 A2999
KGPM 141400Z 31009G18KT 3SM BR BKN009 OVC010 06/06 A2994
KGPM 141335Z AUTO 31007G19KT 4SM OVC011 06/06 A2996 RMK AO2 T00570057
KGPM 141315Z AUTO 31005G18KT 2 1/2SM BKN009 OVC013 06/06 A2994 RMK AO2 T00590059
KGPM 141255Z AUTO 31009G16KT 280V350 2SM OVC009 06/06 A2995 RMK AO2 T00610061
KGPM 141235Z AUTO 33009G16KT 280V350 2 1/2SM OVC011 06/06 A2994 RMK AO2 T00610061
KGPM 141215Z AUTO 31007G15KT 2 1/2SM BKN009 OVC013 06/06 A2992 RMK AO2 T00630063
KGPM 141155Z AUTO 32007G16KT 280V340 2 1/2SM BKN009 OVC014 07/06 A2991 RMK AO2 70001 T00650064 10075 20065
KGPM 141135Z AUTO 32010G18KT 4SM OVC011 07/05 A2990 RMK AO2 T00650050
KGPM 141115Z AUTO 32008G15KT 4SM OVC011 07/05 A2990 RMK AO2 T00670046
KGPM 141055Z AUTO 31010G22KT 280V340 10SM OVC011 07/05 A2989 RMK AO2 T00700046
KGPM 141035Z AUTO 32010G16KT 10SM OVC011 07/05 A2988 RMK AO2 T00700050
KGPM 141015Z AUTO 30009G14KT 280V350 10SM OVC011 07/05 A2987 RMK AO2 T00710050
KGPM 140955Z AUTO 31009G16KT 10SM OVC011 07/05 A2987 RMK AO2 T00710050
KGPM 140935Z AUTO 31007KT 290V350 10SM OVC011 07/05 A2987 RMK AO2 T00700050
KGPM 140915Z AUTO 31007KT 10SM OVC011 07/05 A2986 RMK AO2 T00700050
KGPM 140855Z AUTO 31009G16KT 270V350 10SM OVC011 07/05 A2985 RMK AO2 T00710050
KGPM 140835Z AUTO 31006G14KT 10SM OVC011 07/05 A2985 RMK AO2 T00720050
KGPM 140815Z AUTO 33012G15KT 290V350 10SM OVC011 07/05 A2985 RMK AO2 T00740050
KGPM 140755Z AUTO 33012G16KT 10SM OVC013 08/05 A2984 RMK AO2 T00750051
KGPM 140735Z AUTO 34014G19KT 10SM OVC013 08/05 A2983 RMK AO2 T00750048
KGPM 140715Z AUTO 34012G19KT 10SM OVC013 07/05 A2984 RMK AO2 T00740048
KGPM 140655Z AUTO 33012G18KT 10SM OVC011 08/05 A2984 RMK AO2 T00750052
KGPM 140635Z AUTO 34012G18KT 10SM OVC011 08/06 A2984 RMK AO2 T00750055
KGPM 140615Z AUTO 34014G21KT 10SM OVC011 08/06 A2983 RMK AO2 T00750059
KGPM 140555Z AUTO 34012G20KT 10SM OVC011 08/07 A2983 RMK AO2 T00750074 10094 20075 401880075
KGPM 140535Z AUTO 34012G17KT 10SM BKN009 OVC013 08/08 A2983 RMK AO2 T00750075
KGPM 140515Z AUTO 34011G18KT 10SM OVC011 08/07 A2983 RMK AO2 T00770067
KGPM 140455Z AUTO 34010G18KT 10SM OVC011 08/06 A2982 RMK AO2 T00780058
KGPM 140435Z AUTO 34012G16KT 10SM OVC011 08/06 A2981 RMK AO2 T00780057
KGPM 140415Z AUTO 34015G20KT 10SM OVC011 08/06 A2980 RMK AO2 T00800056
KGPM 140355Z AUTO 34011G19KT 10SM OVC011 08/06 A2980 RMK AO2 T00810055
KGPM 140335Z AUTO 33009G15KT 10SM OVC011 08/05 A2980 RMK AO2 T00810053
KGPM 140315Z AUTO 33008G16KT 10SM OVC011 08/05 A2980 RMK AO2 T00800051
KGPM 140255Z AUTO 35011G17KT 10SM OVC011 08/05 A2979 RMK AO2 T00800050
KGPM 140235Z AUTO 34007KT 10SM OVC013 08/05 A2980 RMK AO2 T00800048
KGPM 140215Z AUTO 33009G16KT 290V350 10SM OVC013 08/05 A2980 RMK AO2 T00800046
KGPM 140155Z AUTO 33008KT 10SM OVC013 08/05 A2979 RMK AO2 T00800046
KGPM 140135Z AUTO 32008KT 10SM OVC013 08/05 A2978 RMK AO2 T00800045
KGPM 140115Z AUTO 33008KT 10SM OVC013 08/05 A2979 RMK AO2 T00800045
KGPM 140055Z AUTO 33008G15KT 10SM OVC013 08/05 A2978 RMK AO2 T00820046
KGPM 140035Z AUTO 31006KT 10SM OVC013 09/05 A2978 RMK AO2 T00870050
KGPM 140015Z AUTO 33011G19KT 10SM OVC013 09/05 A2975 RMK AO2 T00880051
KGPM 132350Z 30009G14KT 10SM OVC013 09/05 A2977
KGPM 132250Z 30005KT 10SM OVC013 10/07 A2974
KGPM 132150Z 29007G18KT 10SM BKN011 BKN029 12/08 A2971
KGPM 132050Z 25009KT 10SM SCT031 17/11 A2965
KGPM 131950Z 22015G22KT 10SM SCT033 SCT085 17/11 A2964
KGPM 131850Z 20007KT 10SM SKC 19/12 A2965
KGPM 131750Z 17008KT 10SM BKN015 BKN025 BKN035 18/15 A2968
KGPM 131650Z 17006KT 10SM BKN011 BKN017 OVC020 18/15 A2970
KGPM 131550Z 17008G18KT 10SM BKN011 17/17 A2971
KGPM 131450Z 13006KT 7SM -RA SCT008 SCT022 16/16 A2971
KGPM 131400Z 15004KT 7SM -RA BKN021 16/16 A2971
KGPM 131335Z AUTO 15004KT 7SM SCT011 SCT023 16/16 A2971 RMK AO2 T01600160
KGPM 131315Z AUTO 13005KT 10SM SCT009 SCT014 BKN023 16/16 A2970 RMK AO2 T01600160
KGPM 131255Z AUTO 18004KT 7SM SCT009 SCT016 SCT021 16/16 A2970 RMK AO2 T01580158
KGPM 131235Z AUTO 14007KT 5SM SCT003 16/16 A2969 RMK AO2 T01570157
KGPM 131215Z AUTO 13005KT 3SM OVC003 16/16 A2968 RMK AO2 T01550155
KGPM 131155Z AUTO 15005KT 4SM CLR 16/16 A2968 RMK AO2 T01560156 10166 20156
KGPM 131135Z AUTO 17004KT 4SM CLR 16/16 A2968 RMK AO2 T01570157
KGPM 131115Z AUTO 17004KT 5SM BKN007 16/16 A2968 RMK AO2 T01590159
KGPM 131055Z AUTO 18005KT 5SM OVC007 16/16 A2969 RMK AO2 T01610161
KGPM 131035Z AUTO 17007KT 4SM OVC005 17/17 A2969 RMK AO2 T01650165
KGPM 131015Z AUTO 17006KT 4SM OVC005 17/17 A2970 RMK AO2 T01650165
KGPM 130955Z AUTO 18005KT 5SM OVC005 17/17 A2972 RMK AO2 T01650165
KGPM 130935Z AUTO 18004KT 5SM OVC005 17/17 A2972 RMK AO2 T01650165
KGPM 130915Z AUTO 16008G14KT 5SM OVC007 17/17 A2973 RMK AO2 T01650165
KGPM 130855Z AUTO 16011G14KT 10SM OVC009 17/17 A2975 RMK AO2 T01660166
KGPM 130835Z AUTO 16011G16KT 10SM OVC009 17/17 A2976 RMK AO2 T01650165
KGPM 130815Z AUTO 16010G14KT 10SM OVC009 16/16 A2977 RMK AO2 T01640164
KGPM 130755Z AUTO 18003KT 10SM OVC011 16/16 A2977 RMK AO2 T01610161